createdAt,value
2023-02-17T00:01:33.376Z,39.22
2023-02-17T00:04:00.920Z,37.47
2023-02-17T00:06:30.317Z,41.72
2023-02-17T00:08:58.132Z,39.97
2023-02-17T00:11:25.807Z,38.40
2023-02-17T00:13:55.259Z,39.47
2023-02-17T00:16:25.194Z,38.30
2023-02-17T00:19:00.644Z,44.20
2023-02-17T00:21:32.817Z,42.90
2023-02-17T00:24:00.244Z,37.08
2023-02-17T00:26:27.502Z,42.85
2023-02-17T00:28:54.818Z,35.53
2023-02-17T00:31:23.315Z,27.15
2023-02-17T00:33:54.641Z,28.77
2023-02-17T00:36:21.746Z,30.67
2023-02-17T00:38:49.583Z,29.98
2023-02-17T00:41:19.908Z,29.48
2023-02-17T00:43:48.039Z,31.08
2023-02-17T00:46:17.151Z,30.02
2023-02-17T00:48:45.639Z,29.40
2023-02-17T00:51:12.886Z,32.63
2023-02-17T00:53:40.028Z,31.13
2023-02-17T00:56:07.809Z,31.17
2023-02-17T00:58:35.833Z,28.98
2023-02-17T01:01:03.378Z,29.80
2023-02-17T01:03:31.314Z,28.35
2023-02-17T01:05:58.462Z,29.48
2023-02-17T01:08:26.051Z,26.63
2023-02-17T01:10:53.693Z,25.20
2023-02-17T01:13:23.423Z,24.63
2023-02-17T01:15:52.800Z,24.13
2023-02-17T01:18:23.975Z,23.90
2023-02-17T01:20:51.604Z,24.38
2023-02-17T01:23:18.483Z,26.52
2023-02-17T01:25:47.095Z,27.25
2023-02-17T01:28:19.739Z,30.80
2023-02-17T01:30:47.406Z,29.92
2023-02-17T01:33:14.409Z,30.88
2023-02-17T01:35:41.787Z,30.63
2023-02-17T01:38:08.525Z,28.85
2023-02-17T01:40:35.366Z,29.48
2023-02-17T01:43:02.148Z,29.52
2023-02-17T01:45:37.185Z,30.80
2023-02-17T01:48:14.540Z,29.08
2023-02-17T01:50:49.206Z,26.27
2023-02-17T01:53:22.032Z,27.10
2023-02-17T01:55:49.944Z,26.08
2023-02-17T01:58:20.135Z,25.85
2023-02-17T02:00:49.799Z,25.48
2023-02-17T02:03:19.899Z,23.08
2023-02-17T02:05:47.413Z,25.20
2023-02-17T02:08:15.276Z,23.60
2023-02-17T02:10:42.222Z,24.38
2023-02-17T02:13:09.503Z,24.58
2023-02-17T02:15:43.412Z,22.15
2023-02-17T02:18:35.266Z,23.00
2023-02-17T02:21:08.077Z,20.98
2023-02-17T02:24:00.339Z,22.67
2023-02-17T02:26:45.499Z,21.85
2023-02-17T02:29:42.982Z,22.02
2023-02-17T02:32:40.381Z,22.42
2023-02-17T02:35:34.727Z,22.13
2023-02-17T02:38:30.410Z,22.17
2023-02-17T02:41:05.198Z,22.15
2023-02-17T02:43:32.677Z,22.35
2023-02-17T02:45:59.537Z,20.85
2023-02-17T02:48:27.562Z,20.90
2023-02-17T02:51:12.595Z,22.83
2023-02-17T02:54:05.764Z,21.33
2023-02-17T02:56:52.692Z,21.65
2023-02-17T02:59:42.823Z,20.45
2023-02-17T03:02:29.965Z,20.77
2023-02-17T03:05:09.480Z,23.38
2023-02-17T03:08:05.799Z,21.90
2023-02-17T03:10:32.823Z,23.27
2023-02-17T03:13:02.207Z,22.02
2023-02-17T03:15:33.742Z,21.08
2023-02-17T03:18:02.757Z,20.70
2023-02-17T03:20:34.793Z,20.95
2023-02-17T03:23:03.400Z,21.55
2023-02-17T03:25:30.411Z,21.00
2023-02-17T03:27:57.499Z,20.10
2023-02-17T03:30:24.982Z,20.35
2023-02-17T03:32:52.102Z,20.63
2023-02-17T03:35:20.681Z,18.15
2023-02-17T03:37:48.254Z,18.10
2023-02-17T03:40:15.118Z,18.65
2023-02-17T03:42:42.182Z,17.75
2023-02-17T03:45:09.445Z,20.42
2023-02-17T03:47:36.586Z,19.95
2023-02-17T03:50:03.866Z,18.95
2023-02-17T03:52:30.800Z,20.02
2023-02-17T03:54:57.564Z,19.52
2023-02-17T03:57:24.445Z,20.52
2023-02-17T03:59:51.233Z,19.65
2023-02-17T04:02:18.041Z,20.20
2023-02-17T04:04:44.958Z,21.80
2023-02-17T04:07:11.976Z,19.95
2023-02-17T04:09:38.741Z,20.38
2023-02-17T04:12:05.885Z,20.63
2023-02-17T04:14:32.711Z,22.00
2023-02-17T04:16:59.672Z,18.88
2023-02-17T04:19:26.532Z,20.13
2023-02-17T04:21:53.547Z,22.63
2023-02-17T04:24:20.320Z,23.48
2023-02-17T04:26:47.276Z,22.27
2023-02-17T04:29:14.260Z,21.00
2023-02-17T04:31:41.239Z,24.85
2023-02-17T04:34:08.168Z,24.48
2023-02-17T04:36:35.438Z,25.13
2023-02-17T04:39:02.293Z,25.60
2023-02-17T04:41:29.154Z,26.35
2023-02-17T04:43:56.085Z,26.63
2023-02-17T04:46:23.320Z,30.30
2023-02-17T04:48:50.079Z,27.73
2023-02-17T04:51:17.132Z,27.08
2023-02-17T04:53:43.975Z,27.42
2023-02-17T04:56:11.188Z,28.85
2023-02-17T04:58:38.028Z,24.95
2023-02-17T05:01:05.204Z,25.33
2023-02-17T05:03:32.158Z,25.83
2023-02-17T05:05:59.059Z,24.90
2023-02-17T05:08:25.934Z,24.25
2023-02-17T05:10:53.323Z,23.20
2023-02-17T05:13:20.424Z,26.63
2023-02-17T05:15:47.662Z,30.75
2023-02-17T05:18:14.534Z,35.83
2023-02-17T05:20:42.227Z,29.00
2023-02-17T05:23:09.014Z,30.13
2023-02-17T05:25:35.864Z,31.55
2023-02-17T05:28:02.776Z,36.75
2023-02-17T05:30:29.730Z,42.85
2023-02-17T05:32:56.684Z,32.85
2023-02-17T05:35:24.802Z,36.55
2023-02-17T05:37:51.574Z,42.00
2023-02-17T05:40:18.691Z,41.95
2023-02-17T05:42:45.572Z,40.33
2023-02-17T05:45:12.714Z,40.10
2023-02-17T05:47:39.509Z,41.78
2023-02-17T05:50:07.129Z,42.83
2023-02-17T05:52:34.080Z,43.00
2023-02-17T05:55:01.109Z,45.03
2023-02-17T05:57:27.905Z,44.45
2023-02-17T05:59:55.024Z,44.45
2023-02-17T06:02:22.029Z,46.08
2023-02-17T06:04:49.090Z,48.53
2023-02-17T06:07:16.029Z,49.78
2023-02-17T06:09:43.178Z,47.15
2023-02-17T06:12:10.016Z,52.30
2023-02-17T06:14:36.998Z,53.63
2023-02-17T06:17:04.136Z,50.38
2023-02-17T06:19:31.465Z,46.97
2023-02-17T06:21:58.280Z,51.33
2023-02-17T06:24:25.634Z,52.63
2023-02-17T06:26:52.563Z,59.33
2023-02-17T06:29:19.535Z,71.63
2023-02-17T06:31:49.663Z,68.65
2023-02-17T06:34:16.706Z,66.90
2023-02-17T06:36:43.543Z,63.75
2023-02-17T06:39:10.577Z,51.45
2023-02-17T06:41:37.529Z,57.47
2023-02-17T06:44:04.878Z,75.00
2023-02-17T06:46:31.856Z,86.85
2023-02-17T06:49:00.159Z,95.28
2023-02-17T06:51:27.886Z,84.07
2023-02-17T06:53:55.633Z,93.50
2023-02-17T06:56:22.634Z,85.22
2023-02-17T06:58:49.581Z,81.00
2023-02-17T07:01:18.416Z,76.97
2023-02-17T07:03:45.655Z,59.40
2023-02-17T07:06:12.591Z,51.60
2023-02-17T07:08:39.441Z,32.90
2023-02-17T07:11:11.818Z,41.83
2023-02-17T07:13:38.878Z,34.97
2023-02-17T07:16:06.506Z,30.25
2023-02-17T07:18:33.977Z,24.05
2023-02-17T07:21:01.043Z,22.58
2023-02-17T07:23:27.910Z,20.73
2023-02-17T07:25:54.698Z,19.98
2023-02-17T07:28:21.607Z,20.88
2023-02-17T07:30:48.519Z,21.00
2023-02-17T07:33:15.472Z,21.10
2023-02-17T07:35:46.096Z,20.95
2023-02-17T07:38:13.553Z,21.88
2023-02-17T07:40:40.503Z,21.05
2023-02-17T07:43:07.431Z,19.25
2023-02-17T07:45:34.725Z,20.38
2023-02-17T07:48:01.651Z,19.98
2023-02-17T07:50:28.704Z,20.55
2023-02-17T07:52:55.758Z,20.20
2023-02-17T07:55:22.652Z,20.58
2023-02-17T07:57:49.817Z,21.00
2023-02-17T08:00:17.394Z,21.33
2023-02-17T08:02:44.498Z,20.52
2023-02-17T08:05:11.767Z,20.27
2023-02-17T08:07:38.724Z,21.35
2023-02-17T08:10:24.905Z,20.30
2023-02-17T08:13:10.408Z,20.15
2023-02-17T08:15:37.653Z,19.08
2023-02-17T08:18:06.516Z,19.23
2023-02-17T08:20:35.209Z,19.73
2023-02-17T08:23:03.721Z,19.17
2023-02-17T08:25:35.670Z,20.48
2023-02-17T08:28:04.953Z,18.90
2023-02-17T08:30:32.172Z,19.27
2023-02-17T08:32:59.869Z,16.98
2023-02-17T08:35:28.235Z,19.02
2023-02-17T08:37:55.581Z,17.77
2023-02-17T08:40:23.010Z,17.00
2023-02-17T08:42:50.042Z,17.63
2023-02-17T08:45:17.307Z,18.95
2023-02-17T08:47:44.177Z,17.90
2023-02-17T08:50:16.426Z,17.50
2023-02-17T08:52:43.286Z,17.83
2023-02-17T08:55:10.595Z,17.20
2023-02-17T08:57:37.492Z,18.27
2023-02-17T09:00:08.639Z,17.75
2023-02-17T09:02:37.604Z,17.33
2023-02-17T09:05:06.087Z,16.80
2023-02-17T09:07:32.990Z,17.58
2023-02-17T09:10:01.025Z,16.08
2023-02-17T09:12:27.886Z,16.38
2023-02-17T09:14:54.990Z,15.82
2023-02-17T09:17:21.980Z,16.48
2023-02-17T09:19:49.026Z,15.35
2023-02-17T09:22:30.833Z,16.42
2023-02-17T09:24:58.688Z,15.38
2023-02-17T09:27:25.716Z,15.05
2023-02-17T09:29:52.665Z,15.05
2023-02-17T09:32:20.463Z,14.13
2023-02-17T09:34:53.320Z,15.02
2023-02-17T09:37:21.984Z,15.38
2023-02-17T09:39:49.139Z,13.52
2023-02-17T09:42:25.700Z,15.43
2023-02-17T09:45:18.452Z,15.02
2023-02-17T09:47:50.781Z,15.02
2023-02-17T09:50:21.871Z,14.07
2023-02-17T09:53:33.716Z,14.43
2023-02-17T09:58:30.034Z,13.77
2023-02-17T10:01:00.636Z,13.50
2023-02-17T10:03:37.689Z,14.07
2023-02-17T10:06:13.994Z,12.70
2023-02-17T10:09:13.019Z,13.40
2023-02-17T10:11:44.219Z,13.70
2023-02-17T10:14:33.110Z,12.65
2023-02-17T10:17:17.668Z,12.27
2023-02-17T10:19:54.905Z,13.18
2023-02-17T10:22:24.445Z,12.38
2023-02-17T10:24:51.684Z,12.77
2023-02-17T10:27:35.732Z,12.88
2023-02-17T10:30:20.310Z,11.30
2023-02-17T10:33:15.245Z,10.75
2023-02-17T10:35:56.148Z,12.18
2023-02-17T10:39:07.743Z,12.63
2023-02-17T10:41:38.212Z,10.82
2023-02-17T10:44:15.386Z,11.63
2023-02-17T10:46:43.516Z,10.82
2023-02-17T10:49:31.469Z,10.32
2023-02-17T10:52:06.349Z,10.45
2023-02-17T10:54:38.656Z,12.23
2023-02-17T10:57:11.249Z,10.88
2023-02-17T10:59:44.332Z,10.52
2023-02-17T11:02:33.487Z,9.85
2023-02-17T11:05:00.572Z,9.82
2023-02-17T11:07:34.848Z,10.20
2023-02-17T11:10:04.821Z,9.45
2023-02-17T11:12:41.521Z,9.63
2023-02-17T11:15:20.651Z,11.27
2023-02-17T11:17:48.091Z,8.70
2023-02-17T11:20:15.301Z,9.68
2023-02-17T11:22:45.882Z,10.38
2023-02-17T11:25:26.476Z,10.85
2023-02-17T11:27:56.650Z,12.45
2023-02-17T11:30:24.962Z,9.65
2023-02-17T11:32:52.079Z,10.82
2023-02-17T11:35:32.894Z,9.15
2023-02-17T11:38:10.542Z,9.00
2023-02-17T11:40:37.677Z,9.15
2023-02-17T11:43:06.062Z,8.00
2023-02-17T11:45:43.021Z,9.82
2023-02-17T11:48:40.042Z,13.93
2023-02-17T11:51:40.700Z,9.65
2023-02-17T11:54:19.212Z,12.98
2023-02-17T11:57:30.779Z,11.80
2023-02-17T12:00:19.107Z,11.60
2023-02-17T12:03:09.914Z,9.52
2023-02-17T12:06:18.509Z,8.10
2023-02-17T12:08:57.474Z,8.30
2023-02-17T12:11:37.550Z,10.88
2023-02-17T12:14:42.019Z,8.27
2023-02-17T12:17:37.975Z,11.52
2023-02-17T12:20:28.136Z,8.80
2023-02-17T12:23:10.568Z,9.65
2023-02-17T12:25:48.863Z,9.60
2023-02-17T12:28:24.776Z,9.75
2023-02-17T12:31:13.494Z,10.10
2023-02-17T12:34:20.185Z,11.23
2023-02-17T12:36:50.446Z,9.90
2023-02-17T12:39:43.078Z,8.65
2023-02-17T12:42:25.075Z,9.93
2023-02-17T12:45:03.553Z,10.40
2023-02-17T12:47:53.741Z,10.95
2023-02-17T12:51:03.157Z,9.75
2023-02-17T12:53:48.142Z,8.35
2023-02-17T12:56:28.482Z,7.90
2023-02-17T12:58:59.352Z,8.93
2023-02-17T13:01:31.394Z,7.50
2023-02-17T13:04:02.704Z,8.93
2023-02-17T13:06:29.554Z,6.10
2023-02-17T13:09:01.796Z,5.95
2023-02-17T13:11:34.987Z,7.45
2023-02-17T13:14:29.360Z,7.22
2023-02-17T13:16:56.202Z,7.88
2023-02-17T13:19:31.801Z,7.47
2023-02-17T13:22:02.368Z,7.07
2023-02-17T13:24:50.841Z,8.47
2023-02-17T13:27:22.582Z,7.75
2023-02-17T13:30:22.015Z,7.45
2023-02-17T13:33:04.296Z,8.48
2023-02-17T13:35:34.929Z,9.10
2023-02-17T13:38:01.775Z,8.27
2023-02-17T13:40:41.229Z,8.88
2023-02-17T13:43:14.988Z,9.07
2023-02-17T13:46:15.683Z,9.90
2023-02-17T13:48:42.632Z,7.87
2023-02-17T13:51:25.649Z,8.55
2023-02-17T13:53:53.882Z,12.80
2023-02-17T13:56:31.139Z,9.70
2023-02-17T13:59:18.037Z,8.70
2023-02-17T14:01:46.583Z,10.05
2023-02-17T14:04:22.505Z,9.50
2023-02-17T14:06:50.132Z,8.30
2023-02-17T14:09:30.720Z,8.70
2023-02-17T14:11:59.092Z,8.73
2023-02-17T14:14:35.050Z,10.07
2023-02-17T14:17:05.158Z,8.57
2023-02-17T14:19:47.335Z,10.38
2023-02-17T14:22:35.328Z,8.48
2023-02-17T14:25:13.109Z,8.40
2023-02-17T14:27:45.091Z,9.48
2023-02-17T14:30:36.135Z,9.73
2023-02-17T14:33:20.076Z,10.48
2023-02-17T14:36:02.939Z,10.55
2023-02-17T14:38:35.296Z,10.27
2023-02-17T14:41:02.266Z,11.05
2023-02-17T14:43:29.881Z,11.60
2023-02-17T14:45:56.745Z,9.88
2023-02-17T14:48:27.383Z,11.50
2023-02-17T14:50:57.277Z,11.77
2023-02-17T14:53:32.961Z,10.23
2023-02-17T14:56:26.625Z,10.50
2023-02-17T14:58:54.046Z,9.55
2023-02-17T15:01:23.533Z,11.45
2023-02-17T15:03:50.597Z,10.80
2023-02-17T15:06:20.989Z,11.23
2023-02-17T15:08:51.649Z,11.15
2023-02-17T15:11:30.429Z,11.13
2023-02-17T15:13:57.792Z,11.27
2023-02-17T15:16:24.757Z,10.18
2023-02-17T15:18:51.792Z,14.40
2023-02-17T15:21:24.340Z,16.02
2023-02-17T15:23:51.626Z,15.00
2023-02-17T15:26:21.538Z,24.13
2023-02-17T15:28:48.598Z,13.23
2023-02-17T15:31:16.769Z,12.73
2023-02-17T15:33:47.645Z,13.10
2023-02-17T15:36:17.725Z,11.50
2023-02-17T15:38:44.479Z,13.02
2023-02-17T15:41:18.452Z,15.65
2023-02-17T15:43:46.974Z,19.35
2023-02-17T15:46:16.844Z,18.38
2023-02-17T15:48:52.303Z,17.73
2023-02-17T15:51:22.546Z,16.42
2023-02-17T15:53:49.565Z,17.85
2023-02-17T15:56:20.613Z,20.27
2023-02-17T15:58:49.054Z,20.23
2023-02-17T16:01:34.715Z,19.48
2023-02-17T16:04:01.810Z,17.73
2023-02-17T16:06:29.535Z,20.30
2023-02-17T16:08:58.812Z,21.67
2023-02-17T16:11:32.713Z,21.83
2023-02-17T16:14:01.230Z,24.23
2023-02-17T16:16:36.162Z,26.33
2023-02-17T16:19:08.829Z,25.27
2023-02-17T16:21:35.913Z,35.35
2023-02-17T16:24:02.678Z,41.45
2023-02-17T16:26:34.493Z,45.60
2023-02-17T16:29:02.973Z,44.72
2023-02-17T16:31:32.592Z,39.33
2023-02-17T16:34:00.546Z,44.92
2023-02-17T16:36:32.542Z,38.38
2023-02-17T16:39:02.708Z,44.05
2023-02-17T16:41:29.640Z,39.97
2023-02-17T16:43:56.478Z,44.20
2023-02-17T16:46:29.768Z,55.38
2023-02-17T16:48:58.019Z,58.50
2023-02-17T16:51:25.142Z,56.03
2023-02-17T16:53:52.590Z,88.10
2023-02-17T16:56:34.666Z,72.93
2023-02-17T16:59:01.633Z,59.78
2023-02-17T17:01:28.590Z,57.10
2023-02-17T17:03:55.490Z,49.42
2023-02-17T17:06:25.922Z,48.08
2023-02-17T17:08:53.667Z,50.10
2023-02-17T17:11:23.834Z,36.58
2023-02-17T17:13:50.838Z,36.47
2023-02-17T17:16:24.863Z,38.30
2023-02-17T17:18:51.813Z,39.13
2023-02-17T17:21:19.596Z,38.42
2023-02-17T17:23:47.548Z,30.10
2023-02-17T17:26:18.897Z,32.80
2023-02-17T17:31:15.430Z,33.92
2023-02-17T17:33:42.513Z,41.38
2023-02-17T17:36:24.405Z,54.70
2023-02-17T17:38:53.454Z,44.80
2023-02-17T17:41:20.875Z,44.85
2023-02-17T17:43:49.026Z,50.03
2023-02-17T17:46:19.320Z,34.88
2023-02-17T17:48:47.410Z,33.28
2023-02-17T17:51:17.422Z,64.82
2023-02-17T17:53:44.687Z,65.88
2023-02-17T17:56:23.815Z,62.22
2023-02-17T17:58:51.290Z,64.85
2023-02-17T18:01:20.343Z,62.88
2023-02-17T18:03:48.387Z,65.32
2023-02-17T18:06:21.635Z,61.22
2023-02-17T18:08:50.532Z,60.92
2023-02-17T18:11:19.895Z,93.07
2023-02-17T18:13:49.814Z,122.72
2023-02-17T18:16:17.139Z,120.45
2023-02-17T18:18:44.069Z,115.75
2023-02-17T18:21:11.067Z,89.97
2023-02-17T18:23:38.057Z,96.03
2023-02-17T18:26:05.302Z,105.63
2023-02-17T18:28:33.892Z,118.03
2023-02-17T18:31:07.730Z,118.03
2023-02-17T18:33:34.699Z,125.35
2023-02-17T18:36:23.223Z,128.55
2023-02-17T18:38:50.617Z,125.63
2023-02-17T18:41:19.267Z,109.80
2023-02-17T18:43:46.470Z,84.47
2023-02-17T18:46:13.597Z,83.68
2023-02-17T18:48:40.432Z,88.10
2023-02-17T18:51:13.331Z,96.25
2023-02-17T18:53:41.288Z,85.68
2023-02-17T18:56:20.110Z,79.18
2023-02-17T18:58:48.281Z,79.90
2023-02-17T19:01:22.435Z,75.25
2023-02-17T19:03:49.490Z,74.28
2023-02-17T19:06:20.457Z,67.95
2023-02-17T19:08:47.990Z,64.68
2023-02-17T19:11:18.003Z,64.75
2023-02-17T19:13:45.258Z,55.90
2023-02-17T19:16:15.273Z,59.28
2023-02-17T19:18:43.570Z,65.90
2023-02-17T19:21:11.023Z,62.30
2023-02-17T19:23:38.910Z,97.82
2023-02-17T19:26:08.001Z,83.97
2023-02-17T19:28:36.680Z,77.47
2023-02-17T19:31:09.472Z,73.93
2023-02-17T19:33:37.082Z,79.97
2023-02-17T19:36:09.074Z,80.10
2023-02-17T19:38:37.085Z,67.57
2023-02-17T19:41:05.648Z,62.28
2023-02-17T19:43:32.740Z,67.88
2023-02-17T19:45:59.720Z,63.60
2023-02-17T19:48:26.772Z,58.13
2023-02-17T19:51:00.719Z,50.30
2023-02-17T19:53:27.971Z,90.95
2023-02-17T19:55:54.777Z,52.22
2023-02-17T19:58:21.608Z,44.42
2023-02-17T20:00:48.433Z,44.00
2023-02-17T20:03:15.236Z,42.30
2023-02-17T20:05:42.655Z,50.42
2023-02-17T20:08:09.516Z,35.38
2023-02-17T20:10:39.446Z,30.20
2023-02-17T20:13:06.671Z,27.30
2023-02-17T20:15:33.560Z,34.20
2023-02-17T20:18:00.424Z,27.30
2023-02-17T20:20:27.275Z,31.25
2023-02-17T20:22:54.079Z,26.83
2023-02-17T20:25:21.019Z,27.75
2023-02-17T20:27:47.844Z,31.20
2023-02-17T20:30:15.049Z,34.28
2023-02-17T20:32:41.890Z,31.95
2023-02-17T20:35:11.174Z,28.42
2023-02-17T20:37:38.086Z,32.47
2023-02-17T20:40:05.462Z,28.90
2023-02-17T20:42:32.494Z,31.67
2023-02-17T20:44:59.326Z,30.58
2023-02-17T20:47:26.117Z,29.55
2023-02-17T20:49:53.021Z,27.42
2023-02-17T20:52:19.818Z,28.48
2023-02-17T20:54:46.616Z,34.58
2023-02-17T20:57:15.677Z,36.08
2023-02-17T20:59:42.814Z,48.70
2023-02-17T21:02:11.171Z,64.35
2023-02-17T21:04:38.064Z,45.78
2023-02-17T21:07:04.917Z,43.97
2023-02-17T21:09:32.002Z,43.38
2023-02-17T21:11:58.878Z,38.70
2023-02-17T21:14:25.662Z,39.17
2023-02-17T21:16:52.566Z,44.88
2023-02-17T21:19:19.607Z,38.13
2023-02-17T21:21:46.800Z,30.27
2023-02-17T21:24:14.003Z,27.90
2023-02-17T21:26:41.162Z,28.98
2023-02-17T21:29:08.451Z,30.45
2023-02-17T21:31:37.089Z,31.30
2023-02-17T21:34:04.851Z,32.30
2023-02-17T21:36:31.676Z,33.83
2023-02-17T21:38:59.124Z,36.53
2023-02-17T21:41:27.806Z,44.97
2023-02-17T21:44:13.657Z,47.28
2023-02-17T21:46:43.902Z,35.65
2023-02-17T21:49:11.660Z,43.63
2023-02-17T21:51:39.834Z,34.38
2023-02-17T21:54:07.278Z,37.30
2023-02-17T21:56:34.305Z,46.15
2023-02-17T21:59:01.059Z,50.85
2023-02-17T22:01:28.664Z,48.13
2023-02-17T22:03:57.657Z,49.97
2023-02-17T22:06:27.781Z,50.58
2023-02-17T22:08:55.288Z,48.90
2023-02-17T22:11:26.762Z,44.47
2023-02-17T22:14:01.465Z,44.22
2023-02-17T22:16:33.836Z,42.90
2023-02-17T22:19:01.441Z,38.28
2023-02-17T22:21:28.980Z,37.92
2023-02-17T22:23:57.924Z,37.05
2023-02-17T22:26:26.092Z,35.88
2023-02-17T22:28:54.285Z,37.45
2023-02-17T22:31:24.927Z,34.63
2023-02-17T22:33:51.861Z,31.38
2023-02-17T22:36:25.194Z,26.85
2023-02-17T22:38:52.637Z,19.80
2023-02-17T22:41:23.041Z,19.38
2023-02-17T22:43:50.847Z,18.30
2023-02-17T22:46:19.981Z,18.45
2023-02-17T22:48:49.134Z,17.35
2023-02-17T22:51:19.495Z,16.45
2023-02-17T22:53:46.751Z,15.37
2023-02-17T22:56:13.969Z,15.05
2023-02-17T22:58:40.975Z,16.90
2023-02-17T23:01:12.698Z,13.13
2023-02-17T23:03:39.997Z,14.35
2023-02-17T23:06:10.469Z,13.90
2023-02-17T23:08:37.750Z,15.33
2023-02-17T23:11:06.389Z,20.95
2023-02-17T23:13:33.506Z,23.60
2023-02-17T23:16:00.354Z,32.05
2023-02-17T23:18:30.983Z,24.17
2023-02-17T23:20:57.989Z,31.95
2023-02-17T23:23:24.899Z,23.33
2023-02-17T23:25:54.454Z,21.80
2023-02-17T23:28:23.674Z,14.60
2023-02-17T23:30:50.672Z,15.57
2023-02-17T23:33:19.842Z,15.88
2023-02-17T23:35:47.782Z,14.20
2023-02-17T23:38:17.374Z,15.77
2023-02-17T23:40:51.169Z,13.32
2023-02-17T23:43:19.559Z,12.98
2023-02-17T23:45:46.577Z,13.63
2023-02-17T23:48:13.609Z,14.07
2023-02-17T23:50:40.865Z,13.88
2023-02-17T23:53:08.686Z,13.98
2023-02-17T23:55:35.643Z,13.75
2023-02-17T23:58:02.507Z,13.15
